createdAt,value
2022-09-23T00:00:57.841Z,10.70
2022-09-23T00:01:57.795Z,11.30
2022-09-23T00:02:57.751Z,10.80
2022-09-23T00:03:57.579Z,10.90
2022-09-23T00:04:57.556Z,11.60
2022-09-23T00:05:57.476Z,11.20
2022-09-23T00:06:57.415Z,11.40
2022-09-23T00:07:57.320Z,11.40
2022-09-23T00:08:57.257Z,11.50
2022-09-23T00:09:57.172Z,11.00
2022-09-23T00:10:58.332Z,11.00
2022-09-23T00:11:57.063Z,11.10
2022-09-23T00:12:56.998Z,11.00
2022-09-23T00:13:56.925Z,10.50
2022-09-23T00:14:56.847Z,10.70
2022-09-23T00:15:56.797Z,11.10
2022-09-23T00:16:56.813Z,10.50
2022-09-23T00:17:56.683Z,11.10
2022-09-23T00:18:56.592Z,11.10
2022-09-23T00:19:56.519Z,11.40
2022-09-23T00:20:56.472Z,10.70
2022-09-23T00:21:56.406Z,11.10
2022-09-23T00:22:58.146Z,11.00
2022-09-23T00:23:56.277Z,10.70
2022-09-23T00:24:56.212Z,10.70
2022-09-23T00:25:56.150Z,11.10
2022-09-23T00:26:56.083Z,10.10
2022-09-23T00:27:56.015Z,10.80
2022-09-23T00:28:55.954Z,11.60
2022-09-23T00:29:55.873Z,11.50
2022-09-23T00:30:55.871Z,11.00
2022-09-23T00:31:55.738Z,11.10
2022-09-23T00:32:55.691Z,11.00
2022-09-23T00:33:55.624Z,11.00
2022-09-23T00:34:56.322Z,11.20
2022-09-23T00:35:55.497Z,11.00
2022-09-23T00:36:55.431Z,10.70
2022-09-23T00:37:55.361Z,11.60
2022-09-23T00:38:55.301Z,10.70
2022-09-23T00:39:55.222Z,11.20
2022-09-23T00:40:55.173Z,11.20
2022-09-23T00:41:55.109Z,11.90
2022-09-23T00:42:55.019Z,11.90
2022-09-23T00:43:54.969Z,11.50
2022-09-23T00:44:54.893Z,11.20
2022-09-23T00:45:54.878Z,10.90
2022-09-23T00:46:55.993Z,10.50
2022-09-23T00:47:54.705Z,10.90
2022-09-23T00:48:54.646Z,10.90
2022-09-23T00:49:54.565Z,10.80
2022-09-23T00:50:54.499Z,10.50
2022-09-23T00:51:54.476Z,10.30
2022-09-23T00:52:54.382Z,10.00
2022-09-23T00:53:54.316Z,9.80
2022-09-23T00:54:54.235Z,10.00
2022-09-23T00:55:54.191Z,11.30
2022-09-23T00:56:54.119Z,10.70
2022-09-23T00:57:54.044Z,9.60
2022-09-23T00:58:54.007Z,10.90
2022-09-23T00:59:53.909Z,10.60
2022-09-23T01:00:53.924Z,10.40
2022-09-23T01:01:53.802Z,10.70
2022-09-23T01:02:53.729Z,10.70
2022-09-23T01:03:53.651Z,11.20
2022-09-23T01:04:54.361Z,10.60
2022-09-23T01:05:53.542Z,11.00
2022-09-23T01:06:53.453Z,11.90
2022-09-23T01:07:53.405Z,11.70
2022-09-23T01:08:53.339Z,10.20
2022-09-23T01:09:53.254Z,11.00
2022-09-23T01:10:53.208Z,10.90
2022-09-23T01:11:53.153Z,11.00
2022-09-23T01:12:53.062Z,11.50
2022-09-23T01:13:53.001Z,11.30
2022-09-23T01:14:52.951Z,11.30
2022-09-23T01:15:52.884Z,11.90
2022-09-23T01:16:54.428Z,11.60
2022-09-23T01:17:52.740Z,10.30
2022-09-23T01:18:52.688Z,10.90
2022-09-23T01:19:52.626Z,10.20
2022-09-23T01:20:52.537Z,11.20
2022-09-23T01:21:52.485Z,11.70
2022-09-23T01:22:53.204Z,11.60
2022-09-23T01:23:52.342Z,11.50
2022-09-23T01:24:52.291Z,12.00
2022-09-23T01:25:52.223Z,11.30
2022-09-23T01:26:52.164Z,10.40
2022-09-23T01:27:52.083Z,10.90
2022-09-23T01:28:52.796Z,11.20
2022-09-23T01:29:51.955Z,9.90
2022-09-23T01:30:51.998Z,9.60
2022-09-23T01:31:51.826Z,10.80
2022-09-23T01:32:51.750Z,9.40
2022-09-23T01:33:51.691Z,9.50
2022-09-23T01:34:52.840Z,10.10
2022-09-23T01:35:51.562Z,9.80
2022-09-23T01:36:51.499Z,10.30
2022-09-23T01:37:51.442Z,9.10
2022-09-23T01:38:51.364Z,10.40
2022-09-23T01:39:51.314Z,9.40
2022-09-23T01:40:51.919Z,9.40
2022-09-23T01:41:51.166Z,9.90
2022-09-23T01:42:51.114Z,9.80
2022-09-23T01:43:51.047Z,9.70
2022-09-23T01:44:50.998Z,9.50
2022-09-23T01:45:50.906Z,9.90
2022-09-23T01:46:51.681Z,9.70
2022-09-23T01:47:50.833Z,9.20
2022-09-23T01:48:50.708Z,10.70
2022-09-23T01:49:50.639Z,10.20
2022-09-23T01:50:50.573Z,9.80
2022-09-23T01:51:50.513Z,9.90
2022-09-23T01:52:50.460Z,10.40
2022-09-23T01:53:50.397Z,10.80
2022-09-23T01:54:50.327Z,10.50
2022-09-23T01:55:50.255Z,10.40
2022-09-23T01:56:50.197Z,10.00
2022-09-23T01:57:50.121Z,11.30
2022-09-23T01:58:50.078Z,10.40
2022-09-23T01:59:50.002Z,10.80
2022-09-23T02:00:50.018Z,10.70
2022-09-23T02:01:49.855Z,10.40
2022-09-23T02:02:50.081Z,10.60
2022-09-23T02:03:49.727Z,11.30
2022-09-23T02:04:51.637Z,10.90
2022-09-23T02:05:49.611Z,12.10
2022-09-23T02:06:49.544Z,10.80
2022-09-23T02:07:49.460Z,10.80
2022-09-23T02:08:49.401Z,11.50
2022-09-23T02:09:49.339Z,11.50
2022-09-23T02:10:49.290Z,12.00
2022-09-23T02:11:49.217Z,10.60
2022-09-23T02:12:49.154Z,10.50
2022-09-23T02:13:49.074Z,10.50
2022-09-23T02:14:49.010Z,11.10
2022-09-23T02:15:48.942Z,10.60
2022-09-23T02:16:48.957Z,10.20
2022-09-23T02:17:48.817Z,10.90
2022-09-23T02:18:48.746Z,11.10
2022-09-23T02:19:48.696Z,11.10
2022-09-23T02:20:48.614Z,11.10
2022-09-23T02:21:48.545Z,10.80
2022-09-23T02:22:49.262Z,11.10
2022-09-23T02:23:48.413Z,11.60
2022-09-23T02:24:48.367Z,10.20
2022-09-23T02:25:48.302Z,10.50
2022-09-23T02:26:48.258Z,11.10
2022-09-23T02:27:48.171Z,10.40
2022-09-23T02:28:49.641Z,10.80
2022-09-23T02:29:48.026Z,10.80
2022-09-23T02:30:47.984Z,10.50
2022-09-23T02:31:47.960Z,11.10
2022-09-23T02:32:47.830Z,11.50
2022-09-23T02:33:47.779Z,11.30
2022-09-23T02:34:49.234Z,10.70
2022-09-23T02:35:47.634Z,10.50
2022-09-23T02:36:47.590Z,12.00
2022-09-23T02:37:47.502Z,10.70
2022-09-23T02:38:47.435Z,9.70
2022-09-23T02:39:47.374Z,10.80
2022-09-23T02:40:47.426Z,11.00
2022-09-23T02:41:47.249Z,10.50
2022-09-23T02:42:47.175Z,10.30
2022-09-23T02:43:47.126Z,10.90
2022-09-23T02:44:47.063Z,9.80
2022-09-23T02:45:47.054Z,10.50
2022-09-23T02:46:48.479Z,10.20
2022-09-23T02:47:46.858Z,10.20
2022-09-23T02:48:46.800Z,11.30
2022-09-23T02:49:46.734Z,11.10
2022-09-23T02:50:46.666Z,9.80
2022-09-23T02:51:46.582Z,10.00
2022-09-23T02:52:46.545Z,10.60
2022-09-23T02:53:46.447Z,9.50
2022-09-23T02:54:46.402Z,10.20
2022-09-23T02:55:46.316Z,9.80
2022-09-23T02:56:46.291Z,9.40
2022-09-23T02:57:46.190Z,9.50
2022-09-23T02:58:46.911Z,9.80
2022-09-23T02:59:46.093Z,9.90
2022-09-23T03:00:46.056Z,9.20
2022-09-23T03:01:45.924Z,9.30
2022-09-23T03:02:45.880Z,9.90
2022-09-23T03:03:45.814Z,9.80
2022-09-23T03:04:45.751Z,9.80
2022-09-23T03:05:45.667Z,10.00
2022-09-23T03:06:45.603Z,10.80
2022-09-23T03:07:45.539Z,10.80
2022-09-23T03:08:45.485Z,9.90
2022-09-23T03:09:45.407Z,10.40
2022-09-23T03:10:46.133Z,10.00
2022-09-23T03:11:45.276Z,9.50
2022-09-23T03:12:45.226Z,9.40
2022-09-23T03:13:45.154Z,9.90
2022-09-23T03:14:45.092Z,9.90
2022-09-23T03:15:45.014Z,11.00
2022-09-23T03:16:46.556Z,10.10
2022-09-23T03:17:44.879Z,10.00
2022-09-23T03:18:44.835Z,9.20
2022-09-23T03:19:44.750Z,9.40
2022-09-23T03:20:44.698Z,9.40
2022-09-23T03:21:44.626Z,8.50
2022-09-23T03:22:44.577Z,8.70
2022-09-23T03:23:44.492Z,8.90
2022-09-23T03:24:44.418Z,9.60
2022-09-23T03:25:44.372Z,10.50
2022-09-23T03:26:44.308Z,10.00
2022-09-23T03:27:44.234Z,9.50
2022-09-23T03:28:44.186Z,8.60
2022-09-23T03:29:44.089Z,9.20
2022-09-23T03:30:44.024Z,9.40
2022-09-23T03:31:44.007Z,9.70
2022-09-23T03:32:43.910Z,9.10
2022-09-23T03:33:43.845Z,9.10
2022-09-23T03:34:43.808Z,9.80
2022-09-23T03:35:43.696Z,9.80
2022-09-23T03:36:43.679Z,10.10
2022-09-23T03:37:43.565Z,9.70
2022-09-23T03:38:43.500Z,10.50
2022-09-23T03:39:43.439Z,10.70
2022-09-23T03:40:44.651Z,10.00
2022-09-23T03:41:43.315Z,9.70
2022-09-23T03:42:43.254Z,9.00
2022-09-23T03:43:43.178Z,9.40
2022-09-23T03:44:43.114Z,8.70
2022-09-23T03:45:43.121Z,8.80
2022-09-23T03:46:43.023Z,9.10
2022-09-23T03:47:42.924Z,9.50
2022-09-23T03:48:42.857Z,9.60
2022-09-23T03:49:42.799Z,9.50
2022-09-23T03:50:42.734Z,9.10
2022-09-23T03:51:44.676Z,8.60
2022-09-23T03:52:42.601Z,8.90
2022-09-23T03:53:42.522Z,9.90
2022-09-23T03:54:42.456Z,9.20
2022-09-23T03:55:42.390Z,9.20
2022-09-23T03:56:42.325Z,10.20
2022-09-23T03:57:42.259Z,9.10
2022-09-23T03:58:44.523Z,8.60
2022-09-23T03:59:42.125Z,9.60
2022-09-23T04:00:42.082Z,9.60
2022-09-23T04:01:42.026Z,9.60
2022-09-23T04:02:41.939Z,9.80
2022-09-23T04:03:41.880Z,10.80
2022-09-23T04:04:41.811Z,9.20
2022-09-23T04:05:41.744Z,9.70
2022-09-23T04:06:41.709Z,9.10
2022-09-23T04:07:41.604Z,9.10
2022-09-23T04:08:41.541Z,9.40
2022-09-23T04:09:41.472Z,10.20
2022-09-23T04:10:41.432Z,9.20
2022-09-23T04:11:41.358Z,9.70
2022-09-23T04:12:41.269Z,9.00
2022-09-23T04:13:41.205Z,9.00
2022-09-23T04:14:41.174Z,8.80
2022-09-23T04:15:41.078Z,8.80
2022-09-23T04:16:41.102Z,8.50
2022-09-23T04:17:40.959Z,8.70
2022-09-23T04:18:40.906Z,8.40
2022-09-23T04:19:40.833Z,8.20
2022-09-23T04:20:40.765Z,8.60
2022-09-23T04:21:40.689Z,8.80
2022-09-23T04:22:40.634Z,9.30
2022-09-23T04:23:40.560Z,9.20
2022-09-23T04:24:40.503Z,8.30
2022-09-23T04:25:40.422Z,8.60
2022-09-23T04:26:40.368Z,9.10
2022-09-23T04:27:40.288Z,9.20
2022-09-23T04:28:40.240Z,9.50
2022-09-23T04:29:40.175Z,8.90
2022-09-23T04:30:40.092Z,9.30
2022-09-23T04:31:40.101Z,9.40
2022-09-23T04:32:39.972Z,9.80
2022-09-23T04:33:39.921Z,9.80
2022-09-23T04:34:40.623Z,8.80
2022-09-23T04:35:40.507Z,9.20
2022-09-23T04:36:39.718Z,8.40
2022-09-23T04:37:39.635Z,8.30
2022-09-23T04:38:39.581Z,8.40
2022-09-23T04:39:39.515Z,8.30
2022-09-23T04:40:39.542Z,8.90
2022-09-23T04:41:39.392Z,9.80
2022-09-23T04:42:39.331Z,9.20
2022-09-23T04:43:39.249Z,9.00
2022-09-23T04:44:39.171Z,8.70
2022-09-23T04:45:39.106Z,8.30
2022-09-23T04:46:40.968Z,8.20
2022-09-23T04:47:38.975Z,9.70
2022-09-23T04:48:38.931Z,9.20
2022-09-23T04:49:38.847Z,10.00
2022-09-23T04:50:38.784Z,9.50
2022-09-23T04:51:38.729Z,9.60
2022-09-23T04:52:38.665Z,8.90
2022-09-23T04:53:38.600Z,9.40
2022-09-23T04:54:38.528Z,8.80
2022-09-23T04:55:38.451Z,10.10
2022-09-23T04:56:38.408Z,9.90
2022-09-23T04:57:38.343Z,10.10
2022-09-23T04:58:39.816Z,10.00
2022-09-23T04:59:38.206Z,10.30
2022-09-23T05:00:38.172Z,9.90
2022-09-23T05:01:38.203Z,10.30
2022-09-23T05:02:38.137Z,11.00
2022-09-23T05:03:37.966Z,10.90
2022-09-23T05:04:37.873Z,11.10
2022-09-23T05:05:37.799Z,10.40
2022-09-23T05:06:37.758Z,11.10
2022-09-23T05:07:37.705Z,10.60
2022-09-23T05:08:37.604Z,10.10
2022-09-23T05:09:37.546Z,10.10
2022-09-23T05:10:37.482Z,10.80
2022-09-23T05:11:37.402Z,10.50
2022-09-23T05:12:37.355Z,10.20
2022-09-23T05:13:37.295Z,10.00
2022-09-23T05:14:37.229Z,10.00
2022-09-23T05:15:37.144Z,10.60
2022-09-23T05:16:37.891Z,9.70
2022-09-23T05:17:37.036Z,12.40
2022-09-23T05:18:36.956Z,10.60
2022-09-23T05:19:36.887Z,10.30
2022-09-23T05:20:36.815Z,10.40
2022-09-23T05:21:36.752Z,10.30
2022-09-23T05:22:36.694Z,10.80
2022-09-23T05:23:36.663Z,10.80
2022-09-23T05:24:36.551Z,11.40
2022-09-23T05:25:38.459Z,10.80
2022-09-23T05:26:36.424Z,11.10
2022-09-23T05:27:36.425Z,11.20
2022-09-23T05:28:36.359Z,10.50
2022-09-23T05:29:36.243Z,11.20
2022-09-23T05:30:36.863Z,9.60
2022-09-23T05:31:36.166Z,9.80
2022-09-23T05:32:36.040Z,10.60
2022-09-23T05:33:36.024Z,9.40
2022-09-23T05:34:37.115Z,9.40
2022-09-23T05:35:35.853Z,9.20
2022-09-23T05:36:38.595Z,7.90
2022-09-23T05:37:35.763Z,9.20
2022-09-23T05:38:35.654Z,8.80
2022-09-23T05:39:35.583Z,9.50
2022-09-23T05:40:35.622Z,8.80
2022-09-23T05:41:35.460Z,8.60
2022-09-23T05:42:35.600Z,8.80
2022-09-23T05:43:35.316Z,9.30
2022-09-23T05:44:35.251Z,9.90
2022-09-23T05:45:35.182Z,9.40
2022-09-23T05:46:35.231Z,9.30
2022-09-23T05:47:35.099Z,9.60
2022-09-23T05:48:34.991Z,8.60
2022-09-23T05:49:58.033Z,8.50
2022-09-23T05:50:34.865Z,6.90
2022-09-23T05:51:34.819Z,7.00
2022-09-23T05:52:35.004Z,7.20
2022-09-23T05:53:34.667Z,7.20
2022-09-23T05:54:34.589Z,7.60
2022-09-23T05:55:34.560Z,7.50
2022-09-23T05:56:34.505Z,6.30
2022-09-23T05:57:34.417Z,6.80
2022-09-23T05:58:35.894Z,7.90
2022-09-23T05:59:34.254Z,6.90
2022-09-23T06:00:34.207Z,6.50
2022-09-23T06:01:34.392Z,6.50
2022-09-23T06:02:34.144Z,6.40
2022-09-23T06:03:33.998Z,6.80
2022-09-23T06:04:33.970Z,6.30
2022-09-23T06:05:33.863Z,6.60
2022-09-23T06:06:33.826Z,5.40
2022-09-23T06:07:33.743Z,5.60
2022-09-23T06:08:33.704Z,5.30
2022-09-23T06:09:36.523Z,5.50
2022-09-23T06:10:33.558Z,5.70
2022-09-23T06:11:33.527Z,5.10
2022-09-23T06:12:33.403Z,5.70
2022-09-23T06:13:33.356Z,5.70
2022-09-23T06:14:33.292Z,5.20
2022-09-23T06:15:33.224Z,5.50
2022-09-23T06:16:35.579Z,5.30
2022-09-23T06:17:33.119Z,5.70
2022-09-23T06:18:33.024Z,5.60
2022-09-23T06:19:32.945Z,5.50
2022-09-23T06:20:32.893Z,5.60
2022-09-23T06:21:32.835Z,5.60
2022-09-23T06:22:36.124Z,5.60
2022-09-23T06:23:32.697Z,5.40
2022-09-23T06:24:32.678Z,5.80
2022-09-23T06:25:32.587Z,6.00
2022-09-23T06:26:32.495Z,5.40
2022-09-23T06:27:32.443Z,5.20
2022-09-23T06:28:33.262Z,5.50
2022-09-23T06:29:32.309Z,4.60
2022-09-23T06:30:32.261Z,4.80
2022-09-23T06:31:32.301Z,4.60
2022-09-23T06:32:32.101Z,4.20
2022-09-23T06:33:36.820Z,6.70
2022-09-23T06:34:38.603Z,6.70
2022-09-23T06:35:31.915Z,4.50
2022-09-23T06:36:42.005Z,5.00
2022-09-23T06:37:31.795Z,4.50
2022-09-23T06:38:31.724Z,4.50
2022-09-23T06:39:31.654Z,4.90
2022-09-23T06:40:31.675Z,5.00
2022-09-23T06:41:31.526Z,4.90
2022-09-23T06:42:31.447Z,4.60
2022-09-23T06:43:31.394Z,5.80
2022-09-23T06:44:31.316Z,5.00
2022-09-23T06:45:31.264Z,5.00
2022-09-23T06:46:32.457Z,6.00
2022-09-23T06:47:31.132Z,5.70
2022-09-23T06:48:31.074Z,6.10
2022-09-23T06:49:30.998Z,5.50
2022-09-23T06:50:30.950Z,5.90
2022-09-23T06:51:30.877Z,6.20
2022-09-23T06:52:30.815Z,5.70
2022-09-23T06:53:30.729Z,6.10
2022-09-23T06:54:30.670Z,5.20
2022-09-23T06:55:30.604Z,6.30
2022-09-23T06:56:34.696Z,5.50
2022-09-23T06:57:30.502Z,5.60
2022-09-23T06:58:31.900Z,5.80
2022-09-23T06:59:30.352Z,6.10
2022-09-23T07:00:30.276Z,6.20
2022-09-23T07:01:30.348Z,7.20
2022-09-23T07:02:30.345Z,14.70
2022-09-23T07:03:30.101Z,7.90
2022-09-23T07:04:30.031Z,13.80
2022-09-23T07:05:29.964Z,7.60
2022-09-23T07:06:29.899Z,6.10
2022-09-23T07:07:29.838Z,6.10
2022-09-23T07:08:29.757Z,7.30
2022-09-23T07:09:29.697Z,6.40
2022-09-23T07:10:30.851Z,6.60
2022-09-23T07:11:29.557Z,6.30
2022-09-23T07:12:29.509Z,6.60
2022-09-23T07:13:29.451Z,7.10
2022-09-23T07:14:29.368Z,6.60
2022-09-23T07:15:29.299Z,6.60
2022-09-23T07:16:30.856Z,6.50
2022-09-23T07:17:29.181Z,6.20
2022-09-23T07:18:33.070Z,6.10
2022-09-23T07:19:29.251Z,6.30
2022-09-23T07:20:28.983Z,6.50
2022-09-23T07:21:28.908Z,6.70
2022-09-23T07:22:28.897Z,5.90
2022-09-23T07:23:28.800Z,6.10
2022-09-23T07:24:28.747Z,6.00
2022-09-23T07:25:28.655Z,6.10
2022-09-23T07:26:28.615Z,5.60
2022-09-23T07:27:28.522Z,5.80
2022-09-23T07:28:29.322Z,6.00
2022-09-23T07:29:30.861Z,6.40
2022-09-23T07:30:28.349Z,6.30
2022-09-23T07:31:38.283Z,6.10
2022-09-23T07:32:31.168Z,6.10
2022-09-23T07:33:32.468Z,5.70
2022-09-23T07:34:28.865Z,6.50
2022-09-23T07:35:28.003Z,6.20
2022-09-23T07:36:27.948Z,5.50
2022-09-23T07:37:27.917Z,5.50
2022-09-23T07:38:27.857Z,6.00
2022-09-23T07:39:27.760Z,6.30
2022-09-23T07:40:27.773Z,6.60
2022-09-23T07:41:27.628Z,6.00
2022-09-23T07:42:27.560Z,6.20
2022-09-23T07:43:27.479Z,6.10
2022-09-23T07:44:27.415Z,5.80
2022-09-23T07:45:27.363Z,5.60
2022-09-23T07:46:28.577Z,5.70
2022-09-23T07:47:27.225Z,5.60
2022-09-23T07:48:30.686Z,5.50
2022-09-23T07:49:27.131Z,5.10
2022-09-23T07:50:27.024Z,5.30
2022-09-23T07:51:28.378Z,5.20
2022-09-23T07:52:26.959Z,5.40
2022-09-23T07:53:26.854Z,5.70
2022-09-23T07:54:26.782Z,5.40
2022-09-23T07:55:26.724Z,4.80
2022-09-23T07:56:26.674Z,5.00
2022-09-23T07:57:26.605Z,5.20
2022-09-23T07:58:27.308Z,5.20
2022-09-23T07:59:26.460Z,5.30
2022-09-23T08:00:26.395Z,5.60
2022-09-23T08:01:26.345Z,5.40
2022-09-23T08:02:26.302Z,4.90
2022-09-23T08:03:26.199Z,5.00
2022-09-23T08:04:28.811Z,5.00
2022-09-23T08:05:26.071Z,5.10
2022-09-23T08:06:26.020Z,4.90
2022-09-23T08:07:25.926Z,4.90
2022-09-23T08:08:25.888Z,4.80
2022-09-23T08:09:25.801Z,5.00
2022-09-23T08:10:25.741Z,5.30
2022-09-23T08:11:25.665Z,5.90
2022-09-23T08:12:25.600Z,4.80
2022-09-23T08:13:25.532Z,5.00
2022-09-23T08:14:25.474Z,5.10
2022-09-23T08:15:25.405Z,5.50
2022-09-23T08:16:26.194Z,5.20
2022-09-23T08:17:25.318Z,4.50
2022-09-23T08:18:25.218Z,6.30
2022-09-23T08:19:25.154Z,5.00
2022-09-23T08:20:25.119Z,4.60
2022-09-23T08:21:25.035Z,4.90
2022-09-23T08:22:24.986Z,5.10
2022-09-23T08:23:24.887Z,4.80
2022-09-23T08:24:24.836Z,4.70
2022-09-23T08:25:25.790Z,5.30
2022-09-23T08:26:24.710Z,5.10
2022-09-23T08:27:24.647Z,4.80
2022-09-23T08:28:24.600Z,4.80
2022-09-23T08:29:24.522Z,5.20
2022-09-23T08:30:24.460Z,4.80
2022-09-23T08:31:24.463Z,4.90
2022-09-23T08:32:24.341Z,5.10
2022-09-23T08:33:24.257Z,5.30
2022-09-23T08:34:26.179Z,5.10
2022-09-23T08:35:24.123Z,4.70
2022-09-23T08:36:24.084Z,5.50
2022-09-23T08:37:24.008Z,5.40
2022-09-23T08:38:23.967Z,5.20
2022-09-23T08:39:23.848Z,5.20
2022-09-23T08:40:23.853Z,5.40
2022-09-23T08:41:23.771Z,4.70
2022-09-23T08:42:23.663Z,4.90
2022-09-23T08:43:23.639Z,4.80
2022-09-23T08:44:23.716Z,4.80
2022-09-23T08:45:23.688Z,4.80
2022-09-23T08:46:25.060Z,4.70
2022-09-23T08:47:26.276Z,4.50
2022-09-23T08:48:24.265Z,5.10
2022-09-23T08:49:23.223Z,5.10
2022-09-23T08:50:23.136Z,5.10
2022-09-23T08:51:23.082Z,5.00
2022-09-23T08:52:24.578Z,5.10
2022-09-23T08:53:22.964Z,5.30
2022-09-23T08:54:22.893Z,5.20
2022-09-23T08:55:22.818Z,4.80
2022-09-23T08:56:22.807Z,4.60
2022-09-23T08:57:22.703Z,4.30
2022-09-23T08:58:25.368Z,3.50
2022-09-23T08:59:22.578Z,3.80
2022-09-23T09:00:22.520Z,3.30
2022-09-23T09:01:22.458Z,3.60
2022-09-23T09:02:22.468Z,3.50
2022-09-23T09:03:22.361Z,3.60
2022-09-23T09:04:22.276Z,3.30
2022-09-23T09:05:22.256Z,3.50
2022-09-23T09:06:22.913Z,2.90
2022-09-23T09:07:38.697Z,3.00
2022-09-23T09:08:21.980Z,3.10
2022-09-23T09:09:21.915Z,2.90
2022-09-23T09:10:22.143Z,3.20
2022-09-23T09:11:21.794Z,3.20
2022-09-23T09:12:21.722Z,3.00
2022-09-23T09:13:21.671Z,3.20
2022-09-23T09:14:21.605Z,3.70
2022-09-23T09:15:24.334Z,3.30
2022-09-23T09:16:41.877Z,3.20
2022-09-23T09:17:21.410Z,3.00
2022-09-23T09:18:21.324Z,3.00
2022-09-23T09:19:21.285Z,2.90
2022-09-23T09:20:21.214Z,3.00
2022-09-23T09:21:21.153Z,3.00
2022-09-23T09:22:21.098Z,3.00
2022-09-23T09:23:21.027Z,3.00
2022-09-23T09:24:20.944Z,2.70
2022-09-23T09:25:20.888Z,2.90
2022-09-23T09:26:20.814Z,3.10
2022-09-23T09:27:20.780Z,2.50
2022-09-23T09:28:20.694Z,2.60
2022-09-23T09:29:34.909Z,2.50
2022-09-23T09:30:21.327Z,2.50
2022-09-23T09:31:20.583Z,2.90
2022-09-23T09:32:20.459Z,2.30
2022-09-23T09:33:20.404Z,3.10
2022-09-23T09:34:23.401Z,3.00
2022-09-23T09:35:20.231Z,2.60
2022-09-23T09:36:20.184Z,2.60
2022-09-23T09:37:20.117Z,2.70
2022-09-23T09:38:20.079Z,2.50
2022-09-23T09:39:22.957Z,2.20
2022-09-23T09:40:20.066Z,2.70
2022-09-23T09:41:19.886Z,2.40
2022-09-23T09:42:19.819Z,3.10
2022-09-23T09:43:19.710Z,3.90
2022-09-23T09:44:19.668Z,2.60
2022-09-23T09:45:20.010Z,2.90
2022-09-23T09:46:19.586Z,2.60
2022-09-23T09:47:19.468Z,3.40
2022-09-23T09:48:19.420Z,3.30
2022-09-23T09:49:19.349Z,3.50
2022-09-23T09:50:19.273Z,3.20
2022-09-23T09:51:19.218Z,2.40
2022-09-23T09:52:19.958Z,2.60
2022-09-23T09:53:19.015Z,3.10
2022-09-23T09:54:18.973Z,3.00
2022-09-23T09:55:18.889Z,2.40
2022-09-23T09:56:18.862Z,3.10
2022-09-23T09:57:18.788Z,2.40
2022-09-23T09:58:18.733Z,2.90
2022-09-23T09:59:18.626Z,3.00
2022-09-23T10:00:18.584Z,2.90
2022-09-23T10:01:18.588Z,2.60
2022-09-23T10:02:18.446Z,3.40
2022-09-23T10:03:18.392Z,3.00
2022-09-23T10:04:19.898Z,3.00
2022-09-23T10:05:18.279Z,2.30
2022-09-23T10:06:18.197Z,3.00
2022-09-23T10:07:18.127Z,2.50
2022-09-23T10:08:18.088Z,3.50
2022-09-23T10:09:18.009Z,3.20
2022-09-23T10:10:31.712Z,2.80
2022-09-23T10:11:17.860Z,2.80
2022-09-23T10:12:17.839Z,2.90
2022-09-23T10:13:17.741Z,3.00
2022-09-23T10:14:17.722Z,3.20
2022-09-23T10:15:17.617Z,2.90
2022-09-23T10:16:17.637Z,3.00
2022-09-23T10:17:17.470Z,2.80
2022-09-23T10:18:17.441Z,3.20
2022-09-23T10:19:17.342Z,3.10
2022-09-23T10:20:17.346Z,3.20
2022-09-23T10:21:17.218Z,3.20
2022-09-23T10:22:17.186Z,2.90
2022-09-23T10:23:17.089Z,3.10
2022-09-23T10:24:17.029Z,2.90
2022-09-23T10:25:16.966Z,3.00
2022-09-23T10:26:16.913Z,2.90
2022-09-23T10:27:16.838Z,3.50
2022-09-23T10:28:19.115Z,3.30
2022-09-23T10:29:16.716Z,3.20
2022-09-23T10:30:17.934Z,3.60
2022-09-23T10:31:16.693Z,3.20
2022-09-23T10:32:17.760Z,3.50
2022-09-23T10:33:17.205Z,3.20
2022-09-23T10:34:17.680Z,4.20
2022-09-23T10:35:17.396Z,3.90
2022-09-23T10:36:20.204Z,3.10
2022-09-23T10:37:16.194Z,3.10
2022-09-23T10:38:16.131Z,3.20
2022-09-23T10:39:16.105Z,3.20
2022-09-23T10:40:16.095Z,3.40
2022-09-23T10:41:15.954Z,3.30
2022-09-23T10:42:15.918Z,2.70
2022-09-23T10:43:15.837Z,2.60
2022-09-23T10:44:15.756Z,3.30
2022-09-23T10:45:15.704Z,2.80
2022-09-23T10:46:15.740Z,2.70
2022-09-23T10:47:15.601Z,2.80
2022-09-23T10:48:15.524Z,2.50
2022-09-23T10:49:15.459Z,2.60
2022-09-23T10:50:15.513Z,2.90
2022-09-23T10:51:15.316Z,2.60
2022-09-23T10:52:16.813Z,2.60
2022-09-23T10:53:15.189Z,2.50
2022-09-23T10:54:15.130Z,2.60
2022-09-23T10:55:15.412Z,2.60
2022-09-23T10:56:15.011Z,2.50
2022-09-23T10:57:14.955Z,2.30
2022-09-23T10:58:15.649Z,2.80
2022-09-23T10:59:14.844Z,2.60
2022-09-23T11:00:14.934Z,2.60
2022-09-23T11:01:14.738Z,2.70
2022-09-23T11:02:14.614Z,2.50
2022-09-23T11:03:14.568Z,2.50
2022-09-23T11:04:14.686Z,2.70
2022-09-23T11:05:14.775Z,2.20
2022-09-23T11:06:14.361Z,2.30
2022-09-23T11:07:14.322Z,2.40
2022-09-23T11:08:14.265Z,3.00
2022-09-23T11:09:14.200Z,2.40
2022-09-23T11:10:28.961Z,2.50
2022-09-23T11:11:14.053Z,2.50
2022-09-23T11:12:14.034Z,2.90
2022-09-23T11:13:13.962Z,2.50
2022-09-23T11:14:13.909Z,2.70
2022-09-23T11:15:13.808Z,2.80
2022-09-23T11:16:13.809Z,2.90
2022-09-23T11:17:13.688Z,2.30
2022-09-23T11:18:13.615Z,2.90
2022-09-23T11:19:13.554Z,2.80
2022-09-23T11:20:13.580Z,2.80
2022-09-23T11:21:13.427Z,2.60
2022-09-23T11:22:15.150Z,2.40
2022-09-23T11:23:13.331Z,3.10
2022-09-23T11:24:13.254Z,3.20
2022-09-23T11:25:13.183Z,2.40
2022-09-23T11:26:13.105Z,2.80
2022-09-23T11:27:13.066Z,2.50
2022-09-23T11:28:12.986Z,3.10
2022-09-23T11:29:13.184Z,3.10
2022-09-23T11:30:12.896Z,2.40
2022-09-23T11:31:12.818Z,2.70
2022-09-23T11:32:12.747Z,3.00
2022-09-23T11:33:12.660Z,2.80
2022-09-23T11:34:12.607Z,3.10
2022-09-23T11:35:12.532Z,2.70
2022-09-23T11:36:12.456Z,2.50
2022-09-23T11:37:12.391Z,2.80
2022-09-23T11:38:12.332Z,3.30
2022-09-23T11:39:12.308Z,2.40
2022-09-23T11:40:13.587Z,3.00
2022-09-23T11:41:12.142Z,2.40
2022-09-23T11:42:12.125Z,2.70
2022-09-23T11:43:12.031Z,2.80
2022-09-23T11:44:11.944Z,2.50
2022-09-23T11:45:11.944Z,2.40
2022-09-23T11:46:12.382Z,2.20
2022-09-23T11:47:11.769Z,2.40
2022-09-23T11:48:11.713Z,2.90
2022-09-23T11:49:11.670Z,2.10
2022-09-23T11:50:11.671Z,2.30
2022-09-23T11:51:11.525Z,2.90
2022-09-23T11:52:11.508Z,2.30
2022-09-23T11:53:11.386Z,2.30
2022-09-23T11:54:11.339Z,2.50
2022-09-23T11:55:19.653Z,2.20
2022-09-23T11:56:11.242Z,2.20
2022-09-23T11:57:11.216Z,2.10
2022-09-23T11:58:22.526Z,4.30
2022-09-23T11:59:11.477Z,2.40
2022-09-23T12:00:10.946Z,2.20
2022-09-23T12:01:10.919Z,2.30
2022-09-23T12:02:19.152Z,2.40
2022-09-23T12:03:10.921Z,2.50
2022-09-23T12:04:20.105Z,2.20
2022-09-23T12:05:10.729Z,2.90
2022-09-23T12:06:10.573Z,2.60
2022-09-23T12:07:10.491Z,2.70
2022-09-23T12:08:10.448Z,2.10
2022-09-23T12:09:10.378Z,2.50
2022-09-23T12:10:10.351Z,2.20
2022-09-23T12:11:10.254Z,2.60
2022-09-23T12:12:10.169Z,2.60
2022-09-23T12:13:10.170Z,2.60
2022-09-23T12:14:10.128Z,2.10
2022-09-23T12:15:09.990Z,2.50
2022-09-23T12:16:11.435Z,2.90
2022-09-23T12:17:09.879Z,3.40
2022-09-23T12:18:09.804Z,2.60
2022-09-23T12:19:09.736Z,2.20
2022-09-23T12:20:09.726Z,2.50
2022-09-23T12:21:15.039Z,2.50
2022-09-23T12:22:09.587Z,2.60
2022-09-23T12:23:09.485Z,2.30
2022-09-23T12:24:09.461Z,2.60
2022-09-23T12:25:09.348Z,2.50
2022-09-23T12:26:09.371Z,2.70
2022-09-23T12:27:09.249Z,3.00
2022-09-23T12:28:10.356Z,3.10
2022-09-23T12:29:09.116Z,2.80
2022-09-23T12:30:09.046Z,2.70
2022-09-23T12:31:09.019Z,2.70
2022-09-23T12:32:08.911Z,2.70
2022-09-23T12:33:08.849Z,2.40
2022-09-23T12:34:08.802Z,2.40
2022-09-23T12:35:08.720Z,2.60
2022-09-23T12:36:08.677Z,2.30
2022-09-23T12:37:08.618Z,2.40
2022-09-23T12:38:08.547Z,2.20
2022-09-23T12:39:08.462Z,2.50
2022-09-23T12:40:08.424Z,2.10
2022-09-23T12:41:08.357Z,2.30
2022-09-23T12:42:08.274Z,2.10
2022-09-23T12:43:08.219Z,2.40
2022-09-23T12:44:08.251Z,2.00
2022-09-23T12:45:08.106Z,2.20
2022-09-23T12:46:08.148Z,1.70
2022-09-23T12:47:07.996Z,2.60
2022-09-23T12:48:07.893Z,2.30
2022-09-23T12:49:07.814Z,2.70
2022-09-23T12:50:07.751Z,2.90
2022-09-23T12:51:07.681Z,2.50
2022-09-23T12:52:10.669Z,2.60
2022-09-23T12:53:07.622Z,2.50
2022-09-23T12:54:07.595Z,2.70
2022-09-23T12:55:07.428Z,2.10
2022-09-23T12:56:07.364Z,2.50
2022-09-23T12:57:07.351Z,2.70
2022-09-23T12:58:07.265Z,2.60
2022-09-23T12:59:07.170Z,2.40
2022-09-23T13:00:07.110Z,2.40
2022-09-23T13:01:07.155Z,2.70
2022-09-23T13:02:07.124Z,2.80
2022-09-23T13:03:06.980Z,2.80
2022-09-23T13:04:07.188Z,2.20
2022-09-23T13:05:06.829Z,2.70
2022-09-23T13:06:06.762Z,2.90
2022-09-23T13:07:06.693Z,2.90
2022-09-23T13:08:06.594Z,3.20
2022-09-23T13:09:06.539Z,2.40
2022-09-23T13:10:06.746Z,2.70
2022-09-23T13:11:06.439Z,3.00